createdAt,value
2019-06-01T00:00:19.365Z,51.50
2019-06-01T00:02:55.862Z,51.50
2019-06-01T00:05:20.912Z,51.40
2019-06-01T00:07:51.000Z,51.50
2019-06-01T00:10:21.140Z,51.70
2019-06-01T00:12:51.019Z,52.00
2019-06-01T00:15:21.126Z,51.50
2019-06-01T00:17:51.092Z,51.70
2019-06-01T00:20:21.090Z,51.80
2019-06-01T00:22:51.792Z,52.00
2019-06-01T00:25:22.274Z,52.00
2019-06-01T00:27:52.892Z,52.00
2019-06-01T00:30:27.159Z,52.00
2019-06-01T00:32:54.832Z,52.00
2019-06-01T00:35:24.845Z,52.10
2019-06-01T00:37:54.446Z,52.10
2019-06-01T00:40:24.558Z,52.00
2019-06-01T00:42:54.780Z,52.00
2019-06-01T00:45:27.064Z,52.00
2019-06-01T00:47:56.742Z,51.80
2019-06-01T00:50:26.781Z,52.00
2019-06-01T00:52:56.912Z,51.80
2019-06-01T00:55:26.917Z,51.80
2019-06-01T00:57:56.621Z,52.00
2019-06-01T01:00:42.545Z,51.80
2019-06-01T01:03:02.788Z,52.10
2019-06-01T01:05:33.101Z,52.00
2019-06-01T01:08:03.122Z,51.80
2019-06-01T01:10:33.200Z,51.80
2019-06-01T01:13:04.791Z,51.80
2019-06-01T01:15:35.197Z,52.00
2019-06-01T01:18:07.680Z,51.80
2019-06-01T01:20:38.716Z,52.00
2019-06-01T01:23:09.251Z,52.30
2019-06-01T01:25:39.337Z,52.60
2019-06-01T01:28:09.432Z,52.60
2019-06-01T01:30:39.442Z,52.70
2019-06-01T01:33:09.773Z,52.60
2019-06-01T01:35:39.805Z,52.70
2019-06-01T01:38:09.948Z,52.40
2019-06-01T01:40:39.986Z,52.40
2019-06-01T01:43:10.070Z,52.10
2019-06-01T01:45:40.186Z,52.10
2019-06-01T01:48:10.175Z,52.30
2019-06-01T01:50:40.342Z,52.30
2019-06-01T01:53:10.411Z,52.30
2019-06-01T01:55:40.371Z,52.40
2019-06-01T01:58:10.342Z,52.30
2019-06-01T02:00:45.434Z,52.30
2019-06-01T02:03:15.412Z,52.40
2019-06-01T02:05:45.791Z,52.10
2019-06-01T02:08:15.990Z,52.30
2019-06-01T02:10:45.963Z,52.30
2019-06-01T02:13:15.899Z,52.30
2019-06-01T02:15:45.974Z,52.60
2019-06-01T02:18:15.987Z,52.10
2019-06-01T02:20:45.961Z,52.10
2019-06-01T02:23:15.996Z,52.40
2019-06-01T02:25:45.982Z,52.10
2019-06-01T02:28:16.019Z,52.60
2019-06-01T02:30:46.665Z,52.30
2019-06-01T02:33:16.803Z,52.30
2019-06-01T02:35:46.869Z,52.60
2019-06-01T02:38:17.075Z,52.60
2019-06-01T02:40:47.159Z,52.60
2019-06-01T02:43:17.335Z,52.60
2019-06-01T02:45:47.481Z,52.60
2019-06-01T02:48:17.451Z,52.40
2019-06-01T02:50:47.506Z,52.60
2019-06-01T02:53:17.510Z,52.60
2019-06-01T02:55:47.582Z,52.60
2019-06-01T02:58:17.518Z,52.60
2019-06-01T03:01:06.907Z,52.60
2019-06-01T03:03:36.978Z,52.40
2019-06-01T03:06:08.563Z,52.60
2019-06-01T03:08:39.325Z,52.60
2019-06-01T03:11:12.061Z,52.40
2019-06-01T03:13:44.483Z,52.70
2019-06-01T03:16:16.077Z,52.40
2019-06-01T03:18:48.409Z,52.60
2019-06-01T03:21:21.351Z,52.60
2019-06-01T03:23:54.310Z,52.40
2019-06-01T03:26:26.249Z,52.30
2019-06-01T03:29:00.063Z,52.30
2019-06-01T03:31:29.870Z,52.60
2019-06-01T03:34:01.340Z,52.70
2019-06-01T03:36:31.437Z,52.40
2019-06-01T03:39:02.088Z,52.40
2019-06-01T03:41:33.321Z,52.30
2019-06-01T03:44:04.405Z,52.30
2019-06-01T03:46:34.159Z,52.10
2019-06-01T03:49:03.915Z,52.10
2019-06-01T03:51:33.498Z,52.10
2019-06-01T03:54:05.052Z,52.10
2019-06-01T03:56:35.154Z,52.10
2019-06-01T03:59:05.136Z,52.00
2019-06-01T04:01:35.052Z,52.10
2019-06-01T04:04:05.414Z,51.80
2019-06-01T04:06:35.129Z,51.70
2019-06-01T04:09:07.810Z,51.50
2019-06-01T04:11:38.019Z,51.80
2019-06-01T04:14:07.817Z,51.80
2019-06-01T04:16:39.150Z,51.40
2019-06-01T04:19:09.936Z,51.40
2019-06-01T04:21:39.711Z,51.50
2019-06-01T04:24:10.222Z,51.50
2019-06-01T04:26:40.023Z,51.80
2019-06-01T04:29:10.359Z,51.50
2019-06-01T04:31:40.131Z,51.50
2019-06-01T04:34:10.907Z,51.50
2019-06-01T04:36:40.743Z,51.40
2019-06-01T04:39:11.631Z,51.50
2019-06-01T04:41:41.567Z,51.50
2019-06-01T04:44:12.187Z,51.10
2019-06-01T04:46:42.009Z,51.50
2019-06-01T04:49:13.255Z,51.40
2019-06-01T04:51:43.230Z,51.10
2019-06-01T04:54:14.405Z,50.90
2019-06-01T04:56:44.665Z,50.90
2019-06-01T04:59:15.283Z,50.90
2019-06-01T05:01:45.175Z,50.70
2019-06-01T05:04:15.415Z,50.70
2019-06-01T05:06:45.326Z,50.50
2019-06-01T05:09:15.722Z,50.70
2019-06-01T05:11:45.776Z,50.50
2019-06-01T05:14:16.479Z,49.80
2019-06-01T05:16:46.470Z,50.40
2019-06-01T05:19:16.575Z,50.20
2019-06-01T05:21:46.873Z,50.20
2019-06-01T05:24:17.089Z,49.90
2019-06-01T05:26:47.556Z,49.90
2019-06-01T05:29:18.058Z,49.30
2019-06-01T05:31:48.036Z,49.00
2019-06-01T05:34:31.575Z,49.50
2019-06-01T05:37:06.520Z,49.80
2019-06-01T05:39:36.722Z,49.60
2019-06-01T05:42:06.987Z,49.30
2019-06-01T05:44:37.440Z,49.20
2019-06-01T05:47:07.591Z,49.00
2019-06-01T05:49:37.727Z,49.30
2019-06-01T05:52:07.514Z,49.00
2019-06-01T05:54:37.223Z,48.60
2019-06-01T05:57:06.846Z,48.60
2019-06-01T05:59:36.721Z,48.90
2019-06-01T06:02:06.426Z,48.60
2019-06-01T06:04:36.096Z,48.40
2019-06-01T06:07:05.726Z,48.90
2019-06-01T06:09:35.465Z,49.00
2019-06-01T06:12:05.161Z,49.00
2019-06-01T06:14:35.231Z,48.10
2019-06-01T06:17:04.944Z,48.30
2019-06-01T06:19:34.578Z,48.40
2019-06-01T06:22:04.354Z,48.40
2019-06-01T06:24:34.133Z,48.40
2019-06-01T06:27:03.830Z,48.30
2019-06-01T06:29:33.472Z,48.30
2019-06-01T06:32:03.207Z,48.30
2019-06-01T06:34:33.126Z,48.10
2019-06-01T06:37:02.765Z,48.10
2019-06-01T06:39:32.431Z,48.00
2019-06-01T06:42:02.165Z,47.80
2019-06-01T06:44:31.855Z,47.70
2019-06-01T06:47:01.964Z,47.10
2019-06-01T06:49:32.777Z,46.80
2019-06-01T06:52:03.318Z,47.00
2019-06-01T06:54:33.279Z,46.70
2019-06-01T06:57:02.987Z,46.20
2019-06-01T06:59:32.782Z,46.10
2019-06-01T07:02:02.438Z,45.90
2019-06-01T07:04:38.200Z,46.10
2019-06-01T07:07:07.823Z,46.10
2019-06-01T07:09:37.616Z,45.80
2019-06-01T07:12:07.365Z,45.30
2019-06-01T07:14:37.024Z,45.20
2019-06-01T07:17:06.824Z,44.90
2019-06-01T07:19:36.833Z,44.90
2019-06-01T07:22:06.517Z,44.40
2019-06-01T07:24:36.567Z,44.10
2019-06-01T07:27:06.189Z,44.60
2019-06-01T07:29:36.174Z,43.70
2019-06-01T07:32:05.898Z,44.30
2019-06-01T07:34:41.898Z,44.60
2019-06-01T07:37:10.922Z,44.40
2019-06-01T07:39:40.633Z,43.90
2019-06-01T07:42:10.285Z,44.40
2019-06-01T07:44:40.809Z,43.70
2019-06-01T07:47:10.625Z,43.10
2019-06-01T07:49:40.348Z,40.70
2019-06-01T07:52:13.129Z,40.60
2019-06-01T07:54:43.158Z,41.30
2019-06-01T07:57:13.431Z,40.70
2019-06-01T07:59:43.136Z,40.60
2019-06-01T08:02:12.916Z,41.90
2019-06-01T08:04:53.242Z,41.00
2019-06-01T08:07:13.868Z,41.30
2019-06-01T08:09:44.027Z,40.70
2019-06-01T08:12:14.051Z,40.50
2019-06-01T08:14:43.859Z,40.20
2019-06-01T08:17:13.641Z,40.30
2019-06-01T08:19:43.426Z,39.30
2019-06-01T08:22:15.641Z,39.40
2019-06-01T08:24:45.426Z,40.20
2019-06-01T08:27:15.232Z,40.30
2019-06-01T08:29:45.014Z,39.70
2019-06-01T08:32:14.666Z,40.20
2019-06-01T08:34:48.578Z,39.90
2019-06-01T08:37:18.763Z,39.60
2019-06-01T08:39:48.536Z,39.40
2019-06-01T08:42:18.405Z,38.80
2019-06-01T08:44:48.039Z,38.20
2019-06-01T08:47:17.745Z,37.60
2019-06-01T08:49:47.489Z,37.20
2019-06-01T08:52:17.308Z,36.60
2019-06-01T08:54:47.122Z,36.00
2019-06-01T08:57:16.882Z,35.40
2019-06-01T08:59:49.551Z,34.80
2019-06-01T09:02:19.352Z,34.70
2019-06-01T09:04:49.269Z,33.70
2019-06-01T09:07:18.788Z,33.10
2019-06-01T09:09:48.438Z,32.30
2019-06-01T09:12:18.061Z,32.20
2019-06-01T09:14:47.729Z,31.70
2019-06-01T09:17:18.908Z,31.40
2019-06-01T09:19:48.692Z,31.60
2019-06-01T09:22:18.383Z,31.60
2019-06-01T09:24:48.025Z,31.40
2019-06-01T09:27:17.924Z,31.60
2019-06-01T09:29:47.811Z,31.60
2019-06-01T09:32:17.600Z,31.70
2019-06-01T09:34:47.238Z,31.40
2019-06-01T09:37:16.874Z,31.60
2019-06-01T09:39:46.882Z,31.30
2019-06-01T09:42:16.498Z,30.80
2019-06-01T09:44:46.223Z,30.80
2019-06-01T09:47:15.866Z,30.40
2019-06-01T09:49:45.566Z,30.60
2019-06-01T09:52:15.253Z,30.10
2019-06-01T09:54:45.046Z,30.30
2019-06-01T09:57:14.804Z,29.90
2019-06-01T09:59:44.638Z,29.80
2019-06-01T10:02:14.331Z,29.70
2019-06-01T10:04:44.042Z,29.50
2019-06-01T10:07:13.784Z,29.40
2019-06-01T10:09:43.915Z,29.20
2019-06-01T10:12:13.786Z,29.30
2019-06-01T10:14:43.551Z,29.40
2019-06-01T10:17:13.264Z,29.40
2019-06-01T10:19:43.344Z,29.20
2019-06-01T10:22:14.404Z,29.10
2019-06-01T10:24:44.419Z,28.90
2019-06-01T10:27:14.127Z,28.80
2019-06-01T10:29:43.835Z,28.70
2019-06-01T10:32:13.562Z,28.60
2019-06-01T10:34:43.316Z,28.60
2019-06-01T10:37:13.078Z,28.40
2019-06-01T10:39:43.095Z,28.10
2019-06-01T10:42:12.898Z,27.90
2019-06-01T10:44:45.823Z,27.80
2019-06-01T10:47:16.244Z,27.70
2019-06-01T10:49:46.016Z,27.40
2019-06-01T10:52:15.674Z,27.60
2019-06-01T10:54:45.327Z,27.50
2019-06-01T10:57:15.164Z,27.40
2019-06-01T10:59:44.994Z,27.20
2019-06-01T11:02:14.741Z,27.30
2019-06-01T11:04:44.516Z,27.00
2019-06-01T11:07:14.289Z,26.90
2019-06-01T11:09:44.060Z,26.80
2019-06-01T11:12:14.541Z,26.50
2019-06-01T11:14:47.299Z,26.60
2019-06-01T11:17:17.714Z,26.70
2019-06-01T11:19:49.412Z,26.40
2019-06-01T11:22:19.605Z,26.10
2019-06-01T11:24:50.548Z,26.40
2019-06-01T11:27:21.355Z,26.10
2019-06-01T11:29:51.842Z,26.10
2019-06-01T11:32:22.723Z,26.30
2019-06-01T11:34:56.899Z,25.70
2019-06-01T11:37:27.273Z,25.70
2019-06-01T11:39:58.695Z,25.50
2019-06-01T11:42:30.776Z,25.40
2019-06-01T11:45:03.061Z,25.20
2019-06-01T11:47:32.927Z,25.10
2019-06-01T11:50:02.911Z,24.90
2019-06-01T11:52:33.150Z,25.00
2019-06-01T11:55:03.090Z,24.80
2019-06-01T11:57:33.023Z,25.00
2019-06-01T12:00:03.210Z,24.90
2019-06-01T12:02:33.479Z,24.90
2019-06-01T12:05:04.236Z,24.60
2019-06-01T12:07:34.232Z,24.70
2019-06-01T12:10:05.955Z,24.80
2019-06-01T12:12:36.016Z,24.80
2019-06-01T12:15:06.535Z,24.80
2019-06-01T12:17:36.572Z,24.60
2019-06-01T12:20:07.844Z,24.60
2019-06-01T12:22:38.679Z,25.10
2019-06-01T12:25:09.416Z,24.40
2019-06-01T12:27:39.558Z,24.90
2019-06-01T12:30:10.035Z,24.20
2019-06-01T12:32:39.901Z,24.10
2019-06-01T12:35:10.295Z,24.00
2019-06-01T12:37:56.130Z,24.00
2019-06-01T12:40:11.797Z,24.20
2019-06-01T12:42:44.035Z,24.30
2019-06-01T12:45:22.849Z,24.10
2019-06-01T12:47:55.603Z,24.00
2019-06-01T12:50:22.948Z,25.20
2019-06-01T12:52:52.978Z,24.30
2019-06-01T12:55:22.968Z,24.40
2019-06-01T12:57:52.920Z,24.50
2019-06-01T13:00:23.358Z,24.70
2019-06-01T13:03:03.828Z,25.40
2019-06-01T13:05:24.999Z,25.40
2019-06-01T13:08:01.794Z,25.80
2019-06-01T13:10:26.333Z,25.80
2019-06-01T13:12:56.114Z,25.70
2019-06-01T13:15:26.042Z,26.20
2019-06-01T13:17:55.712Z,26.50
2019-06-01T13:20:25.569Z,27.30
2019-06-01T13:22:55.549Z,27.80
2019-06-01T13:25:25.393Z,26.90
2019-06-01T13:27:56.908Z,27.50
2019-06-01T13:30:26.714Z,27.00
2019-06-01T13:32:56.449Z,27.50
2019-06-01T13:35:26.283Z,27.70
2019-06-01T13:38:10.762Z,28.00
2019-06-01T13:40:27.440Z,27.90
2019-06-01T13:42:57.132Z,28.00
2019-06-01T13:45:27.016Z,28.60
2019-06-01T13:47:56.831Z,28.10
2019-06-01T13:50:26.598Z,28.40
2019-06-01T13:52:56.667Z,28.10
2019-06-01T13:55:26.404Z,28.90
2019-06-01T13:57:56.144Z,28.40
2019-06-01T14:00:30.592Z,28.90
2019-06-01T14:02:57.843Z,29.90
2019-06-01T14:05:27.885Z,29.50
2019-06-01T14:07:57.776Z,30.10
2019-06-01T14:10:27.428Z,30.80
2019-06-01T14:12:57.116Z,29.80
2019-06-01T14:15:26.960Z,31.00
2019-06-01T14:17:56.812Z,31.00
2019-06-01T14:20:27.087Z,30.30
2019-06-01T14:22:56.778Z,31.10
2019-06-01T14:25:26.788Z,31.30
2019-06-01T14:27:56.528Z,30.70
2019-06-01T14:30:26.427Z,31.90
2019-06-01T14:32:56.953Z,32.60
2019-06-01T14:35:27.167Z,32.30
2019-06-01T14:37:57.230Z,32.50
2019-06-01T14:40:27.111Z,33.40
2019-06-01T14:42:57.785Z,37.80
2019-06-01T14:45:27.696Z,35.90
2019-06-01T14:47:57.792Z,33.80
2019-06-01T14:50:27.613Z,34.50
2019-06-01T14:52:57.879Z,34.80
2019-06-01T14:55:27.830Z,34.40
2019-06-01T14:57:58.426Z,33.80
2019-06-01T15:00:28.459Z,33.50
2019-06-01T15:02:58.488Z,33.50
2019-06-01T15:05:28.242Z,33.20
2019-06-01T15:07:59.054Z,34.50
2019-06-01T15:10:29.511Z,34.10
2019-06-01T15:13:03.031Z,34.40
2019-06-01T15:15:30.397Z,34.20
2019-06-01T15:18:04.716Z,34.70
2019-06-01T15:20:31.837Z,34.00
2019-06-01T15:23:03.594Z,35.00
2019-06-01T15:25:33.202Z,39.60
2019-06-01T15:28:04.006Z,35.30
2019-06-01T15:30:34.501Z,35.10
2019-06-01T15:33:04.182Z,38.20
2019-06-01T15:35:33.836Z,34.40
2019-06-01T15:38:04.682Z,34.20
2019-06-01T15:40:34.634Z,34.50
2019-06-01T15:43:04.402Z,34.50
2019-06-01T15:45:34.177Z,34.70
2019-06-01T15:48:04.145Z,35.00
2019-06-01T15:50:33.827Z,35.10
2019-06-01T15:53:03.605Z,36.00
2019-06-01T15:55:33.380Z,36.80
2019-06-01T15:58:03.277Z,35.60
2019-06-01T16:00:33.257Z,36.60
2019-06-01T16:03:03.139Z,36.50
2019-06-01T16:05:33.095Z,36.90
2019-06-01T16:08:03.625Z,36.80
2019-06-01T16:10:33.571Z,37.40
2019-06-01T16:13:04.510Z,36.50
2019-06-01T16:15:34.994Z,37.20
2019-06-01T16:18:05.020Z,38.50
2019-06-01T16:20:34.920Z,37.50
2019-06-01T16:23:05.217Z,37.60
2019-06-01T16:25:35.174Z,37.40
2019-06-01T16:28:05.702Z,37.90
2019-06-01T16:30:36.125Z,37.20
2019-06-01T16:33:05.708Z,38.40
2019-06-01T16:35:35.466Z,39.00
2019-06-01T16:38:05.902Z,37.50
2019-06-01T16:40:35.845Z,39.40
2019-06-01T16:43:05.865Z,37.50
2019-06-01T16:45:35.580Z,39.10
2019-06-01T16:48:06.584Z,38.10
2019-06-01T16:50:36.495Z,38.50
2019-06-01T16:53:06.390Z,37.80
2019-06-01T16:55:36.245Z,39.10
2019-06-01T16:58:07.252Z,38.40
2019-06-01T17:00:37.195Z,39.70
2019-06-01T17:03:10.997Z,39.40
2019-06-01T17:05:38.519Z,39.00
2019-06-01T17:08:08.266Z,38.80
2019-06-01T17:10:37.995Z,39.30
2019-06-01T17:13:09.029Z,40.90
2019-06-01T17:15:39.201Z,39.30
2019-06-01T17:18:10.457Z,39.30
2019-06-01T17:20:46.577Z,40.00
2019-06-01T17:23:27.509Z,39.60
2019-06-01T17:25:48.163Z,38.80
2019-06-01T17:28:17.998Z,39.60
2019-06-01T17:30:48.030Z,39.00
2019-06-01T17:33:18.023Z,39.30
2019-06-01T17:35:47.739Z,39.10
2019-06-01T17:38:17.493Z,38.80
2019-06-01T17:40:47.211Z,39.60
2019-06-01T17:43:17.134Z,39.60
2019-06-01T17:45:46.881Z,40.00
2019-06-01T17:48:25.992Z,38.70
2019-06-01T17:50:48.232Z,39.40
2019-06-01T17:53:17.936Z,39.30
2019-06-01T17:55:47.653Z,39.30
2019-06-01T17:58:17.377Z,39.60
2019-06-01T18:00:47.145Z,39.00
2019-06-01T18:03:16.864Z,39.40
2019-06-01T18:05:46.542Z,39.10
2019-06-01T18:08:16.281Z,39.30
2019-06-01T18:10:53.809Z,39.30
2019-06-01T18:13:17.589Z,39.30
2019-06-01T18:15:49.971Z,40.00
2019-06-01T18:18:18.705Z,40.20
2019-06-01T18:20:48.572Z,40.20
2019-06-01T18:23:18.347Z,40.20
2019-06-01T18:25:48.105Z,40.20
2019-06-01T18:28:19.649Z,40.30
2019-06-01T18:30:50.826Z,41.00
2019-06-01T18:33:20.883Z,41.20
2019-06-01T18:35:50.685Z,41.50
2019-06-01T18:38:20.703Z,42.10
2019-06-01T18:40:50.633Z,42.40
2019-06-01T18:43:20.291Z,42.70
2019-06-01T18:45:50.306Z,42.40
2019-06-01T18:48:20.915Z,43.10
2019-06-01T18:50:50.705Z,43.30
2019-06-01T18:53:20.476Z,43.60
2019-06-01T18:55:50.523Z,43.40
2019-06-01T18:58:20.279Z,44.10
2019-06-01T19:00:50.114Z,43.40
2019-06-01T19:03:19.875Z,44.10
2019-06-01T19:05:49.502Z,44.90
2019-06-01T19:08:19.312Z,45.30
2019-06-01T19:10:49.709Z,45.30
2019-06-01T19:13:19.894Z,45.60
2019-06-01T19:15:49.603Z,45.60
2019-06-01T19:18:19.377Z,45.80
2019-06-01T19:20:49.182Z,45.60
2019-06-01T19:23:21.822Z,46.10
2019-06-01T19:25:50.741Z,46.10
2019-06-01T19:28:20.696Z,46.20
2019-06-01T19:30:50.480Z,46.40
2019-06-01T19:33:20.350Z,46.20
2019-06-01T19:35:52.322Z,46.20
2019-06-01T19:38:22.425Z,46.40
2019-06-01T19:40:52.348Z,46.40
2019-06-01T19:43:22.271Z,46.50
2019-06-01T19:45:51.999Z,46.50
2019-06-01T19:48:21.832Z,46.50
2019-06-01T19:50:51.778Z,46.50
2019-06-01T19:53:21.668Z,46.70
2019-06-01T19:55:51.719Z,46.70
2019-06-01T19:58:22.372Z,46.70
2019-06-01T20:00:52.378Z,46.80
2019-06-01T20:03:23.783Z,46.80
2019-06-01T20:05:53.918Z,46.80
2019-06-01T20:08:23.787Z,46.80
2019-06-01T20:10:53.441Z,46.80
2019-06-01T20:13:23.110Z,46.80
2019-06-01T20:15:52.741Z,46.80
2019-06-01T20:18:23.041Z,47.00
2019-06-01T20:20:52.808Z,45.50
2019-06-01T20:23:22.510Z,43.00
2019-06-01T20:25:52.317Z,41.20
2019-06-01T20:28:22.054Z,40.50
2019-06-01T20:30:51.813Z,39.70
2019-06-01T20:33:22.513Z,39.60
2019-06-01T20:35:52.390Z,39.30
2019-06-01T20:38:23.374Z,39.30
2019-06-01T20:40:53.478Z,39.30
2019-06-01T20:43:23.214Z,37.80
2019-06-01T20:45:56.060Z,39.10
2019-06-01T20:48:24.151Z,38.50
2019-06-01T20:50:53.904Z,38.40
2019-06-01T20:53:23.582Z,38.20
2019-06-01T20:55:53.304Z,38.50
2019-06-01T20:58:23.819Z,38.50
2019-06-01T21:00:54.444Z,38.20
2019-06-01T21:03:24.416Z,38.40
2019-06-01T21:06:00.809Z,38.10
2019-06-01T21:08:34.242Z,38.10
2019-06-01T21:11:07.171Z,38.10
2019-06-01T21:13:37.738Z,38.40
2019-06-01T21:16:07.581Z,38.80
2019-06-01T21:18:37.338Z,39.10
2019-06-01T21:21:07.237Z,39.10
2019-06-01T21:23:37.019Z,39.10
2019-06-01T21:26:06.933Z,39.70
2019-06-01T21:28:42.077Z,40.50
2019-06-01T21:31:11.909Z,41.00
2019-06-01T21:33:41.575Z,39.30
2019-06-01T21:36:11.315Z,36.50
2019-06-01T21:38:41.136Z,35.90
2019-06-01T21:41:10.906Z,35.70
2019-06-01T21:43:40.618Z,37.10
2019-06-01T21:46:10.236Z,38.50
2019-06-01T21:48:39.930Z,40.50
2019-06-01T21:51:09.680Z,41.30
2019-06-01T21:53:39.408Z,41.90
2019-06-01T21:56:09.349Z,42.10
2019-06-01T21:58:39.009Z,42.20
2019-06-01T22:01:09.210Z,42.20
2019-06-01T22:03:39.134Z,42.40
2019-06-01T22:06:08.850Z,42.50
2019-06-01T22:08:39.052Z,42.50
2019-06-01T22:11:09.031Z,42.50
2019-06-01T22:13:39.048Z,42.70
2019-06-01T22:16:08.817Z,42.50
2019-06-01T22:18:38.485Z,42.20
2019-06-01T22:21:08.367Z,42.20
2019-06-01T22:23:38.262Z,41.90
2019-06-01T22:26:07.983Z,41.80
2019-06-01T22:28:38.129Z,41.60
2019-06-01T22:31:07.909Z,41.60
2019-06-01T22:33:37.573Z,41.90
2019-06-01T22:36:07.287Z,41.90
2019-06-01T22:38:36.957Z,42.10
2019-06-01T22:41:06.981Z,42.10
2019-06-01T22:43:45.632Z,42.10
2019-06-01T22:46:07.941Z,42.20
2019-06-01T22:48:37.603Z,42.20
2019-06-01T22:51:07.266Z,42.20
2019-06-01T22:53:36.999Z,42.40
2019-06-01T22:56:06.665Z,42.40
2019-06-01T22:58:36.520Z,42.40
2019-06-01T23:01:06.219Z,42.50
2019-06-01T23:03:36.059Z,42.50
2019-06-01T23:06:05.801Z,42.50
2019-06-01T23:08:35.518Z,42.50
2019-06-01T23:11:05.273Z,42.70
2019-06-01T23:13:34.908Z,42.70
2019-06-01T23:16:04.649Z,42.70
2019-06-01T23:18:34.423Z,42.70
2019-06-01T23:21:04.313Z,42.70
2019-06-01T23:23:34.019Z,42.80
2019-06-01T23:26:03.732Z,42.80
2019-06-01T23:28:33.613Z,42.80
2019-06-01T23:31:03.400Z,42.80
2019-06-01T23:33:33.148Z,42.80
2019-06-01T23:36:02.740Z,42.80
2019-06-01T23:38:33.182Z,42.80
2019-06-01T23:41:02.876Z,42.80
2019-06-01T23:43:32.937Z,43.00
2019-06-01T23:46:02.789Z,42.80
2019-06-01T23:48:34.139Z,43.00
2019-06-01T23:51:03.700Z,43.10
2019-06-01T23:53:33.813Z,43.10
2019-06-01T23:56:03.686Z,43.10
2019-06-01T23:58:34.636Z,43.10
